Manteca, CA (95337)

4:00 AM PDT on April 25, 2015 (GMT -0700)
Manteca City Hall | | Change Station
CLOSE
Current Station
Personal Weather Station
Location: Manteca, CA
Elevation: 27 ft
Nearby Weather Stations

Elev 27 ft 37.80 °N, 121.23 °W | Updated 6 seconds ago

Rain
Rain
53.6 °F
Feels Like 53.6 °F
N
5.0
Wind Variable Wind from SE
Gusts 5.0 mph

Today
High -- | Low -- °F
--% Chance of Precip.
Yesterday
High -- | Low -- °F
Precip. -- in
6:16 AM 7:49 PM
Waxing Crescent, 45% visible
Pressure 29.87 in
Visibility 6.0 miles
Clouds Few 800 ft
Overcast 2300 ft
Dew Point 52 °F
Humidity 94%
Rainfall 0.35 in
Snow Depth Not available.
UV 0 out of 12
Pollen 8.70 out of 12
Air Quality Not available.
Flu Activity Sporadic
METAR KSCK 251055Z AUTO 17004KT 6SM -RA BR FEW008 OVC023 12/11 A2987 RMK AO2 SLP114 P0007 T01220106

More Conditions Fewer Conditions

Pressure 29.87 in
Visibility 6.0 miles
Clouds Few 800 ft
Overcast 2300 ft
Dew Point 52 °F
Humidity 94%
Rainfall 0.35 in
Snow Depth Not available.
UV 0 out of 12
Pollen 8.70 out of 12
Air Quality Not available.
Flu Activity Sporadic
METAR KSCK 251055Z AUTO 17004KT 6SM -RA BR FEW008 OVC023 12/11 A2987 RMK AO2 SLP114 P0007 T01220106

More Conditions Fewer Conditions

10-Day Weather Forecast

Almanac

Astronomy

Apr. 25, 2015 Rise Set
Actual Time
Civil Twilight
Nautical Twilight
Astronomical Twilight
Moon
Length of Visible Light
Length of Day
Tomorrow will be .
, % of the Moon is Illuminated

Today's Extremes

State Highs State Lows

Community

WunderPhotos

Upload Photos

1,816,638 photos uploaded!

WunderBlogs® & News

Nearby

Air Quality

  Air Quality AQ Index Pollutant
Not available.

Snow Depth

Station Depth Elevation

Earthquake Activity

City Distance Mag. Time & Date
Minimum magnitude displayed is 2.5.

Coastal Water Temperatures

Place Temperature

Stations

Nearby Weather Stations

Station Location Temp. Windchill Dew Point Humidity Wind Precip. Elev Updated Type